sensor_id;sensor_type;location;lat;lon;timestamp;temperature;humidity
72440;DHT22;60446;50.752;4.352;2024-02-21T00:01:22;8.10;99.90
72440;DHT22;60446;50.752;4.352;2024-02-21T00:03:49;8.00;99.90
72440;DHT22;60446;50.752;4.352;2024-02-21T00:06:17;8.00;99.90
72440;DHT22;60446;50.752;4.352;2024-02-21T00:08:44;8.00;99.90
72440;DHT22;60446;50.752;4.352;2024-02-21T00:11:12;8.10;99.90
72440;DHT22;60446;50.752;4.352;2024-02-21T00:13:39;8.10;99.90
72440;DHT22;60446;50.752;4.352;2024-02-21T00:16:07;8.10;99.90
72440;DHT22;60446;50.752;4.352;2024-02-21T00:18:34;8.10;99.90
72440;DHT22;60446;50.752;4.352;2024-02-21T00:21:01;8.20;99.90
72440;DHT22;60446;50.752;4.352;2024-02-21T00:23:29;8.20;99.90
72440;DHT22;60446;50.752;4.352;2024-02-21T00:25:57;8.20;99.90
72440;DHT22;60446;50.752;4.352;2024-02-21T00:28:25;8.20;99.90
72440;DHT22;60446;50.752;4.352;2024-02-21T00:30:53;8.20;99.90
72440;DHT22;60446;50.752;4.352;2024-02-21T00:33:21;8.10;99.90
72440;DHT22;60446;50.752;4.352;2024-02-21T00:35:49;8.20;99.90
72440;DHT22;60446;50.752;4.352;2024-02-21T00:38:17;8.20;99.90
72440;DHT22;60446;50.752;4.352;2024-02-21T00:40:44;8.10;99.90
72440;DHT22;60446;50.752;4.352;2024-02-21T00:43:11;8.10;99.90
72440;DHT22;60446;50.752;4.352;2024-02-21T00:45:39;8.10;99.90
72440;DHT22;60446;50.752;4.352;2024-02-21T00:48:07;8.00;99.90
72440;DHT22;60446;50.752;4.352;2024-02-21T00:50:34;8.10;99.90
72440;DHT22;60446;50.752;4.352;2024-02-21T00:53:01;8.10;99.90
72440;DHT22;60446;50.752;4.352;2024-02-21T00:55:28;8.10;99.90
72440;DHT22;60446;50.752;4.352;2024-02-21T00:57:56;8.10;99.90
72440;DHT22;60446;50.752;4.352;2024-02-21T01:00:23;8.00;99.90
72440;DHT22;60446;50.752;4.352;2024-02-21T01:02:50;8.00;99.90
72440;DHT22;60446;50.752;4.352;2024-02-21T01:05:19;8.00;99.90
72440;DHT22;60446;50.752;4.352;2024-02-21T01:07:47;8.00;99.90
72440;DHT22;60446;50.752;4.352;2024-02-21T01:10:14;7.90;99.90
72440;DHT22;60446;50.752;4.352;2024-02-21T01:12:41;7.90;99.90
72440;DHT22;60446;50.752;4.352;2024-02-21T01:15:08;7.90;99.90
72440;DHT22;60446;50.752;4.352;2024-02-21T01:17:36;7.90;99.90
72440;DHT22;60446;50.752;4.352;2024-02-21T01:20:04;7.90;99.90
72440;DHT22;60446;50.752;4.352;2024-02-21T01:22:34;7.90;99.90
72440;DHT22;60446;50.752;4.352;2024-02-21T01:25:01;7.80;99.90
72440;DHT22;60446;50.752;4.352;2024-02-21T01:27:28;7.80;99.90
72440;DHT22;60446;50.752;4.352;2024-02-21T01:29:55;7.70;99.90
72440;DHT22;60446;50.752;4.352;2024-02-21T01:32:23;7.70;99.90
72440;DHT22;60446;50.752;4.352;2024-02-21T01:34:51;7.70;99.90
72440;DHT22;60446;50.752;4.352;2024-02-21T01:37:19;7.60;99.90
72440;DHT22;60446;50.752;4.352;2024-02-21T01:39:48;7.70;99.90
72440;DHT22;60446;50.752;4.352;2024-02-21T01:42:16;7.60;99.90
72440;DHT22;60446;50.752;4.352;2024-02-21T01:44:43;7.60;99.90
72440;DHT22;60446;50.752;4.352;2024-02-21T01:47:11;7.60;99.90
72440;DHT22;60446;50.752;4.352;2024-02-21T01:49:41;7.60;99.90
72440;DHT22;60446;50.752;4.352;2024-02-21T01:52:10;7.60;99.90
72440;DHT22;60446;50.752;4.352;2024-02-21T01:54:39;7.60;99.90
72440;DHT22;60446;50.752;4.352;2024-02-21T01:57:07;7.60;99.90
72440;DHT22;60446;50.752;4.352;2024-02-21T01:59:34;7.60;99.90
72440;DHT22;60446;50.752;4.352;2024-02-21T02:02:03;7.60;99.90
72440;DHT22;60446;50.752;4.352;2024-02-21T02:04:30;7.70;99.90
72440;DHT22;60446;50.752;4.352;2024-02-21T02:06:59;7.70;99.90
72440;DHT22;60446;50.752;4.352;2024-02-21T02:09:28;7.70;99.90
72440;DHT22;60446;50.752;4.352;2024-02-21T02:11:55;7.70;99.90
72440;DHT22;60446;50.752;4.352;2024-02-21T02:14:25;7.70;99.90
72440;DHT22;60446;50.752;4.352;2024-02-21T02:16:52;7.70;99.90
72440;DHT22;60446;50.752;4.352;2024-02-21T02:19:19;7.70;99.90
72440;DHT22;60446;50.752;4.352;2024-02-21T02:21:52;7.80;99.90
72440;DHT22;60446;50.752;4.352;2024-02-21T02:24:24;7.80;99.90
72440;DHT22;60446;50.752;4.352;2024-02-21T02:26:54;7.80;99.90
72440;DHT22;60446;50.752;4.352;2024-02-21T02:29:21;7.80;99.90
72440;DHT22;60446;50.752;4.352;2024-02-21T02:31:49;7.80;99.90
72440;DHT22;60446;50.752;4.352;2024-02-21T02:34:17;7.90;99.90
72440;DHT22;60446;50.752;4.352;2024-02-21T02:36:44;7.90;99.90
72440;DHT22;60446;50.752;4.352;2024-02-21T02:39:12;7.80;99.90
72440;DHT22;60446;50.752;4.352;2024-02-21T02:41:39;7.80;99.90
72440;DHT22;60446;50.752;4.352;2024-02-21T02:44:06;7.90;99.90
72440;DHT22;60446;50.752;4.352;2024-02-21T02:46:33;7.90;99.90
72440;DHT22;60446;50.752;4.352;2024-02-21T02:49:01;7.90;99.90
72440;DHT22;60446;50.752;4.352;2024-02-21T02:51:30;7.90;99.90
72440;DHT22;60446;50.752;4.352;2024-02-21T02:53:57;7.90;99.90
72440;DHT22;60446;50.752;4.352;2024-02-21T02:56:25;8.00;99.90
72440;DHT22;60446;50.752;4.352;2024-02-21T02:58:52;8.00;99.90
72440;DHT22;60446;50.752;4.352;2024-02-21T03:01:19;7.90;99.90
72440;DHT22;60446;50.752;4.352;2024-02-21T03:03:47;7.90;99.90
72440;DHT22;60446;50.752;4.352;2024-02-21T03:06:14;7.90;99.90
72440;DHT22;60446;50.752;4.352;2024-02-21T03:08:42;7.90;99.90
72440;DHT22;60446;50.752;4.352;2024-02-21T03:11:09;7.90;99.90
72440;DHT22;60446;50.752;4.352;2024-02-21T03:13:38;7.90;99.90
72440;DHT22;60446;50.752;4.352;2024-02-21T03:16:05;7.90;99.90
72440;DHT22;60446;50.752;4.352;2024-02-21T03:18:33;7.90;99.90
72440;DHT22;60446;50.752;4.352;2024-02-21T03:21:00;7.80;99.90
72440;DHT22;60446;50.752;4.352;2024-02-21T03:23:27;7.80;99.90
72440;DHT22;60446;50.752;4.352;2024-02-21T03:25:55;7.80;99.90
72440;DHT22;60446;50.752;4.352;2024-02-21T03:28:22;7.80;99.90
72440;DHT22;60446;50.752;4.352;2024-02-21T03:30:49;7.80;99.90
72440;DHT22;60446;50.752;4.352;2024-02-21T03:33:17;7.80;99.90
72440;DHT22;60446;50.752;4.352;2024-02-21T03:35:44;7.80;99.90
72440;DHT22;60446;50.752;4.352;2024-02-21T03:38:11;7.80;99.90
72440;DHT22;60446;50.752;4.352;2024-02-21T03:40:39;7.80;99.90
72440;DHT22;60446;50.752;4.352;2024-02-21T03:43:06;7.80;99.90
72440;DHT22;60446;50.752;4.352;2024-02-21T03:45:33;7.80;99.90
72440;DHT22;60446;50.752;4.352;2024-02-21T03:48:00;7.80;99.90
72440;DHT22;60446;50.752;4.352;2024-02-21T03:50:28;7.70;99.90
72440;DHT22;60446;50.752;4.352;2024-02-21T03:52:56;7.80;99.90
72440;DHT22;60446;50.752;4.352;2024-02-21T03:55:23;7.70;99.90
72440;DHT22;60446;50.752;4.352;2024-02-21T03:57:51;7.70;99.90
72440;DHT22;60446;50.752;4.352;2024-02-21T04:00:18;7.70;99.90
72440;DHT22;60446;50.752;4.352;2024-02-21T04:02:45;7.80;99.90
72440;DHT22;60446;50.752;4.352;2024-02-21T04:05:15;7.70;99.90
72440;DHT22;60446;50.752;4.352;2024-02-21T04:07:43;7.70;99.90
72440;DHT22;60446;50.752;4.352;2024-02-21T04:10:10;7.80;99.90
72440;DHT22;60446;50.752;4.352;2024-02-21T04:12:38;7.80;99.90
72440;DHT22;60446;50.752;4.352;2024-02-21T04:15:06;7.80;99.90
72440;DHT22;60446;50.752;4.352;2024-02-21T04:17:33;7.80;99.90
72440;DHT22;60446;50.752;4.352;2024-02-21T04:20:03;7.80;99.90
72440;DHT22;60446;50.752;4.352;2024-02-21T04:22:36;7.80;99.90
72440;DHT22;60446;50.752;4.352;2024-02-21T04:25:03;7.80;99.90
72440;DHT22;60446;50.752;4.352;2024-02-21T04:27:30;7.70;99.90
72440;DHT22;60446;50.752;4.352;2024-02-21T04:29:57;7.70;99.90
72440;DHT22;60446;50.752;4.352;2024-02-21T04:32:25;7.70;99.90
72440;DHT22;60446;50.752;4.352;2024-02-21T04:34:54;7.70;99.90
72440;DHT22;60446;50.752;4.352;2024-02-21T04:37:22;7.80;99.90
72440;DHT22;60446;50.752;4.352;2024-02-21T04:39:49;7.70;99.90
72440;DHT22;60446;50.752;4.352;2024-02-21T04:42:17;7.70;99.90
72440;DHT22;60446;50.752;4.352;2024-02-21T04:44:44;7.70;99.90
72440;DHT22;60446;50.752;4.352;2024-02-21T04:47:12;7.70;99.90
72440;DHT22;60446;50.752;4.352;2024-02-21T04:49:39;7.60;99.90
72440;DHT22;60446;50.752;4.352;2024-02-21T04:52:07;7.70;99.90
72440;DHT22;60446;50.752;4.352;2024-02-21T04:54:34;7.70;99.90
72440;DHT22;60446;50.752;4.352;2024-02-21T04:57:04;7.70;99.90
72440;DHT22;60446;50.752;4.352;2024-02-21T04:59:32;7.70;99.90
72440;DHT22;60446;50.752;4.352;2024-02-21T05:02:00;7.70;99.90
72440;DHT22;60446;50.752;4.352;2024-02-21T05:04:27;7.70;99.90
72440;DHT22;60446;50.752;4.352;2024-02-21T05:06:55;7.70;99.90
72440;DHT22;60446;50.752;4.352;2024-02-21T05:09:22;7.70;99.90
72440;DHT22;60446;50.752;4.352;2024-02-21T05:11:49;7.70;99.90
72440;DHT22;60446;50.752;4.352;2024-02-21T05:14:16;7.70;99.90
72440;DHT22;60446;50.752;4.352;2024-02-21T05:16:44;7.60;99.90
72440;DHT22;60446;50.752;4.352;2024-02-21T05:19:11;7.60;99.90
72440;DHT22;60446;50.752;4.352;2024-02-21T05:21:38;7.60;99.90
72440;DHT22;60446;50.752;4.352;2024-02-21T05:24:05;7.60;99.90
72440;DHT22;60446;50.752;4.352;2024-02-21T05:26:33;7.60;99.90
72440;DHT22;60446;50.752;4.352;2024-02-21T05:29:00;7.60;99.90
72440;DHT22;60446;50.752;4.352;2024-02-21T05:34:18;7.60;99.90
72440;DHT22;60446;50.752;4.352;2024-02-21T05:36:46;7.60;99.90
72440;DHT22;60446;50.752;4.352;2024-02-21T05:39:14;7.60;99.90
72440;DHT22;60446;50.752;4.352;2024-02-21T05:41:42;7.70;99.90
72440;DHT22;60446;50.752;4.352;2024-02-21T05:44:10;7.70;99.90
72440;DHT22;60446;50.752;4.352;2024-02-21T05:46:38;7.70;99.90
72440;DHT22;60446;50.752;4.352;2024-02-21T05:49:05;7.70;99.90
72440;DHT22;60446;50.752;4.352;2024-02-21T05:51:34;7.70;99.90
72440;DHT22;60446;50.752;4.352;2024-02-21T05:54:02;7.70;99.90
72440;DHT22;60446;50.752;4.352;2024-02-21T05:56:30;7.70;99.90
72440;DHT22;60446;50.752;4.352;2024-02-21T05:58:57;7.70;99.90
72440;DHT22;60446;50.752;4.352;2024-02-21T06:01:25;7.80;99.90
72440;DHT22;60446;50.752;4.352;2024-02-21T06:03:52;7.80;99.90
72440;DHT22;60446;50.752;4.352;2024-02-21T06:06:19;7.80;99.90
72440;DHT22;60446;50.752;4.352;2024-02-21T06:08:49;7.80;99.90
72440;DHT22;60446;50.752;4.352;2024-02-21T06:11:16;7.80;99.90
72440;DHT22;60446;50.752;4.352;2024-02-21T06:13:46;7.80;99.90
72440;DHT22;60446;50.752;4.352;2024-02-21T06:16:13;7.80;99.90
72440;DHT22;60446;50.752;4.352;2024-02-21T06:18:40;7.80;99.90
72440;DHT22;60446;50.752;4.352;2024-02-21T06:21:08;7.80;99.90
72440;DHT22;60446;50.752;4.352;2024-02-21T06:23:36;7.70;99.90
72440;DHT22;60446;50.752;4.352;2024-02-21T06:26:04;7.70;99.90
72440;DHT22;60446;50.752;4.352;2024-02-21T06:28:31;7.80;99.90
72440;DHT22;60446;50.752;4.352;2024-02-21T06:30:59;7.80;99.90
72440;DHT22;60446;50.752;4.352;2024-02-21T06:33:26;7.80;99.90
72440;DHT22;60446;50.752;4.352;2024-02-21T06:35:53;7.80;99.90
72440;DHT22;60446;50.752;4.352;2024-02-21T06:38:20;7.80;99.90
72440;DHT22;60446;50.752;4.352;2024-02-21T06:40:48;7.80;99.90
72440;DHT22;60446;50.752;4.352;2024-02-21T06:43:20;7.70;99.90
72440;DHT22;60446;50.752;4.352;2024-02-21T06:45:48;7.70;99.90
72440;DHT22;60446;50.752;4.352;2024-02-21T06:48:18;7.70;99.90
72440;DHT22;60446;50.752;4.352;2024-02-21T06:50:46;7.70;99.90
72440;DHT22;60446;50.752;4.352;2024-02-21T06:53:14;7.60;99.90
72440;DHT22;60446;50.752;4.352;2024-02-21T06:55:41;7.60;99.90
72440;DHT22;60446;50.752;4.352;2024-02-21T06:58:08;7.60;99.90
72440;DHT22;60446;50.752;4.352;2024-02-21T07:00:39;7.60;99.90
72440;DHT22;60446;50.752;4.352;2024-02-21T07:03:07;7.60;99.90
72440;DHT22;60446;50.752;4.352;2024-02-21T07:05:34;7.60;99.90
72440;DHT22;60446;50.752;4.352;2024-02-21T07:08:02;7.60;99.90
72440;DHT22;60446;50.752;4.352;2024-02-21T07:10:30;7.60;99.90
72440;DHT22;60446;50.752;4.352;2024-02-21T07:12:59;7.60;99.90
72440;DHT22;60446;50.752;4.352;2024-02-21T07:15:27;7.60;99.90
72440;DHT22;60446;50.752;4.352;2024-02-21T07:17:55;7.60;99.90
72440;DHT22;60446;50.752;4.352;2024-02-21T07:20:22;7.50;99.90
72440;DHT22;60446;50.752;4.352;2024-02-21T07:22:50;7.60;99.90
72440;DHT22;60446;50.752;4.352;2024-02-21T07:25:17;7.60;99.90
72440;DHT22;60446;50.752;4.352;2024-02-21T07:27:45;7.60;99.90
72440;DHT22;60446;50.752;4.352;2024-02-21T07:30:13;7.60;99.90
72440;DHT22;60446;50.752;4.352;2024-02-21T07:32:43;7.60;99.90
72440;DHT22;60446;50.752;4.352;2024-02-21T07:35:10;7.60;99.90
72440;DHT22;60446;50.752;4.352;2024-02-21T07:37:39;7.60;99.90
72440;DHT22;60446;50.752;4.352;2024-02-21T07:40:11;7.60;99.90
72440;DHT22;60446;50.752;4.352;2024-02-21T07:42:40;7.60;99.90
72440;DHT22;60446;50.752;4.352;2024-02-21T07:45:08;7.70;99.90
72440;DHT22;60446;50.752;4.352;2024-02-21T07:47:36;7.60;99.90
72440;DHT22;60446;50.752;4.352;2024-02-21T07:50:04;7.70;99.90
72440;DHT22;60446;50.752;4.352;2024-02-21T07:52:33;7.70;99.90
72440;DHT22;60446;50.752;4.352;2024-02-21T07:55:02;7.80;99.90
72440;DHT22;60446;50.752;4.352;2024-02-21T07:57:30;7.80;99.90
72440;DHT22;60446;50.752;4.352;2024-02-21T07:59:57;7.70;99.90
72440;DHT22;60446;50.752;4.352;2024-02-21T08:02:24;7.80;99.90
72440;DHT22;60446;50.752;4.352;2024-02-21T08:04:52;7.80;99.90
72440;DHT22;60446;50.752;4.352;2024-02-21T08:07:19;7.80;99.90
72440;DHT22;60446;50.752;4.352;2024-02-21T08:09:46;7.80;99.90
72440;DHT22;60446;50.752;4.352;2024-02-21T08:12:14;7.80;99.90
72440;DHT22;60446;50.752;4.352;2024-02-21T08:14:41;7.70;99.90
72440;DHT22;60446;50.752;4.352;2024-02-21T08:17:08;7.70;99.90
72440;DHT22;60446;50.752;4.352;2024-02-21T08:19:36;7.70;99.90
72440;DHT22;60446;50.752;4.352;2024-02-21T08:22:03;7.80;99.90
72440;DHT22;60446;50.752;4.352;2024-02-21T08:24:30;7.80;99.90
72440;DHT22;60446;50.752;4.352;2024-02-21T08:26:58;7.80;99.90
72440;DHT22;60446;50.752;4.352;2024-02-21T08:29:25;7.80;99.90
72440;DHT22;60446;50.752;4.352;2024-02-21T08:31:53;7.70;99.90
72440;DHT22;60446;50.752;4.352;2024-02-21T08:34:22;7.80;99.90
72440;DHT22;60446;50.752;4.352;2024-02-21T08:36:50;7.80;99.90
72440;DHT22;60446;50.752;4.352;2024-02-21T08:39:17;7.80;99.90
72440;DHT22;60446;50.752;4.352;2024-02-21T08:41:44;7.80;99.90
72440;DHT22;60446;50.752;4.352;2024-02-21T08:44:27;7.80;99.90
72440;DHT22;60446;50.752;4.352;2024-02-21T08:46:55;7.80;99.90
72440;DHT22;60446;50.752;4.352;2024-02-21T08:49:24;7.80;99.90
72440;DHT22;60446;50.752;4.352;2024-02-21T08:52:00;7.90;99.90
72440;DHT22;60446;50.752;4.352;2024-02-21T08:54:28;7.90;99.90
72440;DHT22;60446;50.752;4.352;2024-02-21T08:56:55;7.90;99.90
72440;DHT22;60446;50.752;4.352;2024-02-21T08:59:23;8.00;99.90
72440;DHT22;60446;50.752;4.352;2024-02-21T09:01:53;8.10;99.90
72440;DHT22;60446;50.752;4.352;2024-02-21T09:04:20;8.10;99.90
72440;DHT22;60446;50.752;4.352;2024-02-21T09:06:47;8.10;99.90
72440;DHT22;60446;50.752;4.352;2024-02-21T09:09:15;8.10;99.90
72440;DHT22;60446;50.752;4.352;2024-02-21T09:11:42;8.20;99.90
72440;DHT22;60446;50.752;4.352;2024-02-21T09:14:11;8.20;99.90
72440;DHT22;60446;50.752;4.352;2024-02-21T09:16:38;8.30;99.90
72440;DHT22;60446;50.752;4.352;2024-02-21T09:19:06;8.30;99.90
72440;DHT22;60446;50.752;4.352;2024-02-21T09:21:33;8.40;99.90
72440;DHT22;60446;50.752;4.352;2024-02-21T09:24:01;8.40;99.90
72440;DHT22;60446;50.752;4.352;2024-02-21T09:26:29;8.50;99.90
72440;DHT22;60446;50.752;4.352;2024-02-21T09:28:56;8.50;99.90
72440;DHT22;60446;50.752;4.352;2024-02-21T09:31:24;8.50;99.90
72440;DHT22;60446;50.752;4.352;2024-02-21T09:33:51;8.60;99.90
72440;DHT22;60446;50.752;4.352;2024-02-21T09:36:19;8.60;99.90
72440;DHT22;60446;50.752;4.352;2024-02-21T09:38:46;8.60;99.90
72440;DHT22;60446;50.752;4.352;2024-02-21T09:41:25;8.70;99.90
72440;DHT22;60446;50.752;4.352;2024-02-21T09:43:54;8.70;99.90
72440;DHT22;60446;50.752;4.352;2024-02-21T09:46:45;8.80;99.90
72440;DHT22;60446;50.752;4.352;2024-02-21T09:49:32;8.90;99.90
72440;DHT22;60446;50.752;4.352;2024-02-21T09:52:01;8.90;99.90
72440;DHT22;60446;50.752;4.352;2024-02-21T09:54:33;8.90;99.90
72440;DHT22;60446;50.752;4.352;2024-02-21T09:57:05;9.00;99.90
72440;DHT22;60446;50.752;4.352;2024-02-21T09:59:33;9.00;99.90
72440;DHT22;60446;50.752;4.352;2024-02-21T10:02:01;9.00;99.90
72440;DHT22;60446;50.752;4.352;2024-02-21T10:04:30;9.10;99.90
72440;DHT22;60446;50.752;4.352;2024-02-21T10:06:59;9.00;99.90
72440;DHT22;60446;50.752;4.352;2024-02-21T10:09:29;9.10;99.90
72440;DHT22;60446;50.752;4.352;2024-02-21T10:12:08;9.10;99.90
72440;DHT22;60446;50.752;4.352;2024-02-21T10:14:40;9.20;99.90
72440;DHT22;60446;50.752;4.352;2024-02-21T10:17:14;9.30;99.90
72440;DHT22;60446;50.752;4.352;2024-02-21T10:19:45;9.30;99.90
72440;DHT22;60446;50.752;4.352;2024-02-21T10:22:17;9.40;99.90
72440;DHT22;60446;50.752;4.352;2024-02-21T10:24:45;9.40;99.90
72440;DHT22;60446;50.752;4.352;2024-02-21T10:27:12;9.40;99.90
72440;DHT22;60446;50.752;4.352;2024-02-21T10:29:40;9.50;99.90
72440;DHT22;60446;50.752;4.352;2024-02-21T10:32:13;9.50;99.90
72440;DHT22;60446;50.752;4.352;2024-02-21T10:34:41;9.60;99.90
72440;DHT22;60446;50.752;4.352;2024-02-21T10:37:11;9.60;99.90
72440;DHT22;60446;50.752;4.352;2024-02-21T10:39:40;9.50;99.90
72440;DHT22;60446;50.752;4.352;2024-02-21T10:42:11;9.40;99.90
72440;DHT22;60446;50.752;4.352;2024-02-21T10:44:40;9.50;99.90
72440;DHT22;60446;50.752;4.352;2024-02-21T10:47:10;9.50;99.90
72440;DHT22;60446;50.752;4.352;2024-02-21T10:49:41;9.50;99.90
72440;DHT22;60446;50.752;4.352;2024-02-21T10:52:44;9.50;99.90
72440;DHT22;60446;50.752;4.352;2024-02-21T10:55:30;9.50;99.90
72440;DHT22;60446;50.752;4.352;2024-02-21T10:58:17;9.50;99.90
72440;DHT22;60446;50.752;4.352;2024-02-21T11:00:45;9.60;99.90
72440;DHT22;60446;50.752;4.352;2024-02-21T11:03:12;9.70;99.90
72440;DHT22;60446;50.752;4.352;2024-02-21T11:05:41;9.70;99.90
72440;DHT22;60446;50.752;4.352;2024-02-21T11:08:12;9.70;99.90
72440;DHT22;60446;50.752;4.352;2024-02-21T11:10:46;9.60;99.90
72440;DHT22;60446;50.752;4.352;2024-02-21T11:13:13;9.60;99.90
72440;DHT22;60446;50.752;4.352;2024-02-21T11:15:41;9.60;99.90
72440;DHT22;60446;50.752;4.352;2024-02-21T11:18:08;9.60;99.90
72440;DHT22;60446;50.752;4.352;2024-02-21T11:20:37;9.50;99.90
72440;DHT22;60446;50.752;4.352;2024-02-21T11:23:06;9.60;99.90
72440;DHT22;60446;50.752;4.352;2024-02-21T11:25:33;9.60;99.90
72440;DHT22;60446;50.752;4.352;2024-02-21T11:28:05;9.60;99.90
72440;DHT22;60446;50.752;4.352;2024-02-21T11:30:36;9.60;99.90
72440;DHT22;60446;50.752;4.352;2024-02-21T11:33:08;9.60;99.90
72440;DHT22;60446;50.752;4.352;2024-02-21T11:35:36;9.60;99.90
72440;DHT22;60446;50.752;4.352;2024-02-21T11:38:11;9.70;99.90
72440;DHT22;60446;50.752;4.352;2024-02-21T11:40:45;9.70;99.90
72440;DHT22;60446;50.752;4.352;2024-02-21T11:43:13;9.70;99.90
72440;DHT22;60446;50.752;4.352;2024-02-21T11:45:42;9.60;99.90
72440;DHT22;60446;50.752;4.352;2024-02-21T11:48:09;9.60;99.90
72440;DHT22;60446;50.752;4.352;2024-02-21T11:50:37;9.70;99.90
72440;DHT22;60446;50.752;4.352;2024-02-21T11:53:06;9.80;99.90
72440;DHT22;60446;50.752;4.352;2024-02-21T11:55:34;9.80;99.90
72440;DHT22;60446;50.752;4.352;2024-02-21T11:58:01;9.80;99.90
72440;DHT22;60446;50.752;4.352;2024-02-21T12:00:30;9.60;99.90
72440;DHT22;60446;50.752;4.352;2024-02-21T12:02:59;9.50;99.90
72440;DHT22;60446;50.752;4.352;2024-02-21T12:05:29;9.50;99.90
72440;DHT22;60446;50.752;4.352;2024-02-21T12:07:58;9.50;99.90
72440;DHT22;60446;50.752;4.352;2024-02-21T12:10:26;9.40;99.90
72440;DHT22;60446;50.752;4.352;2024-02-21T12:13:08;9.30;99.90
72440;DHT22;60446;50.752;4.352;2024-02-21T12:15:36;9.30;99.90
72440;DHT22;60446;50.752;4.352;2024-02-21T12:18:05;9.30;99.90
72440;DHT22;60446;50.752;4.352;2024-02-21T12:20:33;9.30;99.90
72440;DHT22;60446;50.752;4.352;2024-02-21T12:23:00;9.30;99.90
72440;DHT22;60446;50.752;4.352;2024-02-21T12:25:28;9.30;99.90
72440;DHT22;60446;50.752;4.352;2024-02-21T12:27:56;9.50;99.90
72440;DHT22;60446;50.752;4.352;2024-02-21T12:30:24;9.50;99.90
72440;DHT22;60446;50.752;4.352;2024-02-21T12:32:51;9.60;99.90
72440;DHT22;60446;50.752;4.352;2024-02-21T12:35:18;9.60;99.90
72440;DHT22;60446;50.752;4.352;2024-02-21T12:37:46;9.70;99.90
72440;DHT22;60446;50.752;4.352;2024-02-21T12:40:13;9.60;99.90
72440;DHT22;60446;50.752;4.352;2024-02-21T12:42:42;9.70;99.90
72440;DHT22;60446;50.752;4.352;2024-02-21T12:45:09;9.60;99.90
72440;DHT22;60446;50.752;4.352;2024-02-21T12:47:37;9.70;99.90
72440;DHT22;60446;50.752;4.352;2024-02-21T12:50:04;9.70;99.90
72440;DHT22;60446;50.752;4.352;2024-02-21T12:52:34;9.60;99.90
72440;DHT22;60446;50.752;4.352;2024-02-21T12:55:02;9.70;99.90
72440;DHT22;60446;50.752;4.352;2024-02-21T12:57:29;9.70;99.90
72440;DHT22;60446;50.752;4.352;2024-02-21T12:59:57;9.70;99.90
72440;DHT22;60446;50.752;4.352;2024-02-21T13:02:24;9.80;99.90
72440;DHT22;60446;50.752;4.352;2024-02-21T13:04:52;9.80;99.90
72440;DHT22;60446;50.752;4.352;2024-02-21T13:07:20;9.80;99.90
72440;DHT22;60446;50.752;4.352;2024-02-21T13:09:47;9.80;99.90
72440;DHT22;60446;50.752;4.352;2024-02-21T13:12:15;9.80;99.90
72440;DHT22;60446;50.752;4.352;2024-02-21T13:14:42;9.80;99.90
72440;DHT22;60446;50.752;4.352;2024-02-21T13:17:11;9.70;99.90
72440;DHT22;60446;50.752;4.352;2024-02-21T13:19:38;9.80;99.90
72440;DHT22;60446;50.752;4.352;2024-02-21T13:22:06;9.80;99.90
72440;DHT22;60446;50.752;4.352;2024-02-21T13:24:34;9.80;99.90
72440;DHT22;60446;50.752;4.352;2024-02-21T13:27:01;9.70;99.90
72440;DHT22;60446;50.752;4.352;2024-02-21T13:29:30;9.70;99.90
72440;DHT22;60446;50.752;4.352;2024-02-21T13:31:58;9.60;99.90
72440;DHT22;60446;50.752;4.352;2024-02-21T13:34:25;9.60;99.90
72440;DHT22;60446;50.752;4.352;2024-02-21T13:36:54;9.60;99.90
72440;DHT22;60446;50.752;4.352;2024-02-21T13:39:21;9.70;99.90
72440;DHT22;60446;50.752;4.352;2024-02-21T13:41:49;9.70;99.90
72440;DHT22;60446;50.752;4.352;2024-02-21T13:44:16;9.60;99.90
72440;DHT22;60446;50.752;4.352;2024-02-21T13:46:43;9.50;99.90
72440;DHT22;60446;50.752;4.352;2024-02-21T13:49:11;9.50;99.90
72440;DHT22;60446;50.752;4.352;2024-02-21T13:51:38;9.60;99.90
72440;DHT22;60446;50.752;4.352;2024-02-21T13:54:08;9.60;99.90
72440;DHT22;60446;50.752;4.352;2024-02-21T13:56:36;9.60;99.90
72440;DHT22;60446;50.752;4.352;2024-02-21T13:59:04;9.50;99.90
72440;DHT22;60446;50.752;4.352;2024-02-21T14:01:32;9.40;99.90
72440;DHT22;60446;50.752;4.352;2024-02-21T14:03:59;9.40;99.90
72440;DHT22;60446;50.752;4.352;2024-02-21T14:06:27;9.30;99.90
72440;DHT22;60446;50.752;4.352;2024-02-21T14:08:56;9.30;99.90
72440;DHT22;60446;50.752;4.352;2024-02-21T14:11:23;9.30;99.90
72440;DHT22;60446;50.752;4.352;2024-02-21T14:13:51;9.30;99.90
72440;DHT22;60446;50.752;4.352;2024-02-21T14:16:18;9.30;99.90
72440;DHT22;60446;50.752;4.352;2024-02-21T14:18:46;9.30;99.90
72440;DHT22;60446;50.752;4.352;2024-02-21T14:21:13;9.20;99.90
72440;DHT22;60446;50.752;4.352;2024-02-21T14:23:41;9.20;99.90
72440;DHT22;60446;50.752;4.352;2024-02-21T14:26:08;9.10;99.90
72440;DHT22;60446;50.752;4.352;2024-02-21T14:28:36;9.10;99.90
72440;DHT22;60446;50.752;4.352;2024-02-21T14:31:03;9.00;99.90
72440;DHT22;60446;50.752;4.352;2024-02-21T14:33:33;9.10;99.90
72440;DHT22;60446;50.752;4.352;2024-02-21T14:36:00;9.00;99.90
72440;DHT22;60446;50.752;4.352;2024-02-21T14:38:32;9.00;99.90
72440;DHT22;60446;50.752;4.352;2024-02-21T14:40:59;8.90;99.90
72440;DHT22;60446;50.752;4.352;2024-02-21T14:43:27;8.90;99.90
72440;DHT22;60446;50.752;4.352;2024-02-21T14:45:55;8.90;99.90
72440;DHT22;60446;50.752;4.352;2024-02-21T14:48:22;8.90;99.90
72440;DHT22;60446;50.752;4.352;2024-02-21T14:50:50;8.90;99.90
72440;DHT22;60446;50.752;4.352;2024-02-21T14:53:17;8.80;99.90
72440;DHT22;60446;50.752;4.352;2024-02-21T14:55:45;8.80;99.90
72440;DHT22;60446;50.752;4.352;2024-02-21T14:58:12;8.70;99.90
72440;DHT22;60446;50.752;4.352;2024-02-21T15:00:40;8.70;99.90
72440;DHT22;60446;50.752;4.352;2024-02-21T15:03:07;8.70;99.90
72440;DHT22;60446;50.752;4.352;2024-02-21T15:05:36;8.70;99.90
72440;DHT22;60446;50.752;4.352;2024-02-21T15:08:04;8.60;99.90
72440;DHT22;60446;50.752;4.352;2024-02-21T15:10:32;8.60;99.90
72440;DHT22;60446;50.752;4.352;2024-02-21T15:12:59;8.60;99.90
72440;DHT22;60446;50.752;4.352;2024-02-21T15:15:26;8.60;99.90
72440;DHT22;60446;50.752;4.352;2024-02-21T15:17:53;8.60;99.90
72440;DHT22;60446;50.752;4.352;2024-02-21T15:20:21;8.60;99.90
72440;DHT22;60446;50.752;4.352;2024-02-21T15:22:48;8.50;99.90
72440;DHT22;60446;50.752;4.352;2024-02-21T15:25:15;8.50;99.90
72440;DHT22;60446;50.752;4.352;2024-02-21T15:27:45;8.40;99.90
72440;DHT22;60446;50.752;4.352;2024-02-21T15:30:12;8.40;99.90
72440;DHT22;60446;50.752;4.352;2024-02-21T15:32:41;8.40;99.90
72440;DHT22;60446;50.752;4.352;2024-02-21T15:35:12;8.30;99.90
72440;DHT22;60446;50.752;4.352;2024-02-21T15:37:40;8.30;99.90
72440;DHT22;60446;50.752;4.352;2024-02-21T15:40:08;8.30;99.90
72440;DHT22;60446;50.752;4.352;2024-02-21T15:42:35;8.30;99.90
72440;DHT22;60446;50.752;4.352;2024-02-21T15:45:03;8.30;99.90
72440;DHT22;60446;50.752;4.352;2024-02-21T15:47:34;8.20;99.90
72440;DHT22;60446;50.752;4.352;2024-02-21T15:50:04;8.20;99.90
72440;DHT22;60446;50.752;4.352;2024-02-21T15:52:32;8.20;99.90
72440;DHT22;60446;50.752;4.352;2024-02-21T15:54:59;8.20;99.90